Aviation Digital Data Service (ADDS)

Output produced by TAFs form (1604 UTC 21 September 2017)
found at http://www.aviationweather.gov/adds/tafs/
 
METAR text: RJSF 211100Z 36010KT 330V030 9999 FEW030 SCT/// 16/15 Q1015
Conditions at: RJSF (FUKUSHIMA ARPT , JP) observed 1100 UTC 21 September 2017
Temperature: 16.0°C (61°F)
Dewpoint: 15.0°C (59°F) [RH = 94%]
Pressure (altimeter): 29.97 inches Hg (1015.0 mb)
Winds: from the N (360 degrees) at 12 MPH (10 knots; 5.2 m/s)
Visibility: 6 or more miles (10+ km)
Ceiling: at least 12,000 feet AGL
Clouds: few clouds at 3000 feet AGL
Weather: no significant weather observed at this time

Forecast for: RJSF (FUKUSHIMA ARPT , JP)
Text: TAF RJSF 211116Z 2112/2218 36005KT 9999 FEW020
Forecast period: 1200 to 2000 UTC 21 September 2017
Forecast type: FROM: standard forecast or significant change
Winds: from the N (360 degrees) at 6 MPH (5 knots; 2.6 m/s)
Visibility: 6 or more miles (10+ km)
Clouds: few clouds at 2000 feet AGL
Weather: no significant weather forecast for this period
Text: BECMG 2120/2122 18010KT
Forecast period: 2000 UTC 21 September 2017 to 1800 UTC 22 September 2017
Forecast type: BECOMING: Conditions expected to become as follows by 2200 UTC 21 September 2017
Winds: from the S (180 degrees) at 12 MPH (10 knots; 5.2 m/s)
Visibility: 6 or more miles (10+ km)
Clouds: few clouds at 2000 feet AGL
Weather: no significant weather forecast for this period